Terminal Aerodrome Forecast
Issued by NWS Topeka, KS

Home | Current Version | Previous Version | Text Only | Print | Product List | Glossary On
Versions: 1 2 3 4 5 6 7 8 9 10 11 12 13 14 15 16 17
432
FTUS43 KTOP 280520
TAFTOP
TAF
KTOP 280520Z 2806/2906 02005KT P6SM SCT040 BKN100
     FM281700 05007KT P6SM SCT045=

USA.gov is the U.S. government's official web portal to all federal, state and local government web resources and services.